Upper Anton Chico, New Mexico
Current Conditions -  °F | °C
As of 6:53 PM on Wednesday 22 Oct 2014 (Local Time) from KCQC Reporting Station
Clear Clear  
Wind Chill: 54°   Ceiling: Unl
Heat Index: 54°   Visibility: 10mi
Dew Point: 32°   Wind: 12mph
Humidity: 43%   Direction: 300°WNW
Pressure: 30.21"   Gusts: NA
Location:  35.086°N, 105.064°W
Report Text: KCQC 230053Z AUTO 30010KT 10SM CLR 12/00 A3021 RMK AO2 SLP179 T01220000
Loading
Personal Weather Stations






























Interactive Weather Map
Tropical Storm Tracking
New forecast layout! Learn more

10-Day Weather Forecast

Advertisements
Track Severe Weather on mobile